sensor_id;sensor_type;location;lat;lon;timestamp;P1;durP1;ratioP1;P2;durP2;ratioP2
8993;SDS011;4532;50.886;4.700;2023-05-16T00:02:31;13.37;;;3.00;;
8993;SDS011;4532;50.886;4.700;2023-05-16T00:04:58;11.87;;;3.07;;
8993;SDS011;4532;50.886;4.700;2023-05-16T00:07:29;10.93;;;3.00;;
8993;SDS011;4532;50.886;4.700;2023-05-16T00:09:58;9.90;;;2.80;;
8993;SDS011;4532;50.886;4.700;2023-05-16T00:12:28;13.27;;;2.87;;
8993;SDS011;4532;50.886;4.700;2023-05-16T00:14:55;15.60;;;2.77;;
8993;SDS011;4532;50.886;4.700;2023-05-16T00:17:25;16.53;;;3.00;;
8993;SDS011;4532;50.886;4.700;2023-05-16T00:19:54;10.20;;;2.53;;
8993;SDS011;4532;50.886;4.700;2023-05-16T00:22:24;14.37;;;3.00;;
8993;SDS011;4532;50.886;4.700;2023-05-16T00:24:51;10.53;;;2.43;;
8993;SDS011;4532;50.886;4.700;2023-05-16T00:27:24;15.83;;;2.60;;
8993;SDS011;4532;50.886;4.700;2023-05-16T00:29:54;13.03;;;2.97;;
8993;SDS011;4532;50.886;4.700;2023-05-16T00:32:24;14.10;;;2.93;;
8993;SDS011;4532;50.886;4.700;2023-05-16T00:34:51;9.73;;;2.20;;
8993;SDS011;4532;50.886;4.700;2023-05-16T00:37:23;16.03;;;2.77;;
8993;SDS011;4532;50.886;4.700;2023-05-16T00:39:50;16.47;;;2.50;;
8993;SDS011;4532;50.886;4.700;2023-05-16T00:42:18;13.33;;;2.37;;
8993;SDS011;4532;50.886;4.700;2023-05-16T00:44:46;16.93;;;2.50;;
8993;SDS011;4532;50.886;4.700;2023-05-16T00:47:16;9.77;;;2.80;;
8993;SDS011;4532;50.886;4.700;2023-05-16T00:49:46;10.57;;;2.50;;
8993;SDS011;4532;50.886;4.700;2023-05-16T00:52:13;12.83;;;2.27;;
8993;SDS011;4532;50.886;4.700;2023-05-16T00:54:43;15.00;;;2.93;;
8993;SDS011;4532;50.886;4.700;2023-05-16T00:57:13;12.30;;;2.47;;
8993;SDS011;4532;50.886;4.700;2023-05-16T00:59:46;13.20;;;2.70;;
8993;SDS011;4532;50.886;4.700;2023-05-16T01:02:18;10.10;;;2.37;;
8993;SDS011;4532;50.886;4.700;2023-05-16T01:04:45;9.07;;;2.37;;
8993;SDS011;4532;50.886;4.700;2023-05-16T01:07:18;13.00;;;2.40;;
8993;SDS011;4532;50.886;4.700;2023-05-16T01:09:49;12.87;;;2.63;;
8993;SDS011;4532;50.886;4.700;2023-05-16T01:15:03;11.90;;;2.33;;
8993;SDS011;4532;50.886;4.700;2023-05-16T01:22:47;6.17;;;1.77;;
8993;SDS011;4532;50.886;4.700;2023-05-16T01:28:14;18.27;;;3.00;;
8993;SDS011;4532;50.886;4.700;2023-05-16T01:30:49;10.80;;;2.47;;
8993;SDS011;4532;50.886;4.700;2023-05-16T01:33:19;10.20;;;2.17;;
8993;SDS011;4532;50.886;4.700;2023-05-16T01:35:54;9.33;;;1.70;;
8993;SDS011;4532;50.886;4.700;2023-05-16T01:38:35;9.90;;;2.70;;
8993;SDS011;4532;50.886;4.700;2023-05-16T01:43:56;9.27;;;2.33;;
8993;SDS011;4532;50.886;4.700;2023-05-16T01:46:30;12.53;;;2.90;;
8993;SDS011;4532;50.886;4.700;2023-05-16T01:49:15;12.83;;;2.83;;
8993;SDS011;4532;50.886;4.700;2023-05-16T01:51:51;8.13;;;2.23;;
8993;SDS011;4532;50.886;4.700;2023-05-16T01:54:24;12.67;;;2.57;;
8993;SDS011;4532;50.886;4.700;2023-05-16T01:56:56;8.93;;;2.47;;
8993;SDS011;4532;50.886;4.700;2023-05-16T01:59:28;8.60;;;2.00;;
8993;SDS011;4532;50.886;4.700;2023-05-16T02:01:56;10.97;;;2.27;;
8993;SDS011;4532;50.886;4.700;2023-05-16T02:04:26;12.50;;;2.40;;
8993;SDS011;4532;50.886;4.700;2023-05-16T02:06:55;14.80;;;2.20;;
8993;SDS011;4532;50.886;4.700;2023-05-16T02:09:23;14.70;;;3.17;;
8993;SDS011;4532;50.886;4.700;2023-05-16T02:11:52;8.10;;;2.20;;
8993;SDS011;4532;50.886;4.700;2023-05-16T02:14:22;9.57;;;2.53;;
8993;SDS011;4532;50.886;4.700;2023-05-16T02:16:51;13.83;;;2.30;;
8993;SDS011;4532;50.886;4.700;2023-05-16T02:19:18;10.17;;;2.00;;
8993;SDS011;4532;50.886;4.700;2023-05-16T02:21:48;13.70;;;2.47;;
8993;SDS011;4532;50.886;4.700;2023-05-16T02:24:18;15.07;;;2.40;;
8993;SDS011;4532;50.886;4.700;2023-05-16T02:26:48;11.77;;;2.30;;
8993;SDS011;4532;50.886;4.700;2023-05-16T02:29:15;13.73;;;2.60;;
8993;SDS011;4532;50.886;4.700;2023-05-16T02:31:42;9.60;;;3.17;;
8993;SDS011;4532;50.886;4.700;2023-05-16T02:34:10;12.73;;;2.47;;
8993;SDS011;4532;50.886;4.700;2023-05-16T02:36:37;9.23;;;2.03;;
8993;SDS011;4532;50.886;4.700;2023-05-16T02:39:06;11.20;;;2.40;;
8993;SDS011;4532;50.886;4.700;2023-05-16T02:41:36;12.27;;;2.53;;
8993;SDS011;4532;50.886;4.700;2023-05-16T02:44:04;11.13;;;2.40;;
8993;SDS011;4532;50.886;4.700;2023-05-16T02:46:32;8.63;;;2.17;;
8993;SDS011;4532;50.886;4.700;2023-05-16T02:49:04;7.83;;;1.93;;
8993;SDS011;4532;50.886;4.700;2023-05-16T02:51:34;10.77;;;2.30;;
8993;SDS011;4532;50.886;4.700;2023-05-16T02:54:03;10.23;;;1.87;;
8993;SDS011;4532;50.886;4.700;2023-05-16T02:56:35;6.63;;;2.00;;
8993;SDS011;4532;50.886;4.700;2023-05-16T02:59:07;12.23;;;1.97;;
8993;SDS011;4532;50.886;4.700;2023-05-16T03:01:34;13.27;;;2.73;;
8993;SDS011;4532;50.886;4.700;2023-05-16T03:04:02;12.80;;;2.80;;
8993;SDS011;4532;50.886;4.700;2023-05-16T03:06:29;10.90;;;3.37;;
8993;SDS011;4532;50.886;4.700;2023-05-16T03:08:58;10.60;;;2.30;;
8993;SDS011;4532;50.886;4.700;2023-05-16T03:11:28;13.73;;;2.33;;
8993;SDS011;4532;50.886;4.700;2023-05-16T03:13:55;12.07;;;2.43;;
8993;SDS011;4532;50.886;4.700;2023-05-16T03:16:27;8.40;;;2.17;;
8993;SDS011;4532;50.886;4.700;2023-05-16T03:18:57;8.63;;;2.30;;
8993;SDS011;4532;50.886;4.700;2023-05-16T03:21:27;16.97;;;2.63;;
8993;SDS011;4532;50.886;4.700;2023-05-16T03:23:54;11.17;;;2.10;;
8993;SDS011;4532;50.886;4.700;2023-05-16T03:26:24;11.73;;;2.63;;
8993;SDS011;4532;50.886;4.700;2023-05-16T03:28:53;13.50;;;2.57;;
8993;SDS011;4532;50.886;4.700;2023-05-16T03:31:23;9.60;;;2.23;;
8993;SDS011;4532;50.886;4.700;2023-05-16T03:33:52;9.97;;;2.20;;
8993;SDS011;4532;50.886;4.700;2023-05-16T03:36:20;7.53;;;1.90;;
8993;SDS011;4532;50.886;4.700;2023-05-16T03:38:50;7.33;;;2.47;;
8993;SDS011;4532;50.886;4.700;2023-05-16T03:41:18;8.50;;;2.20;;
8993;SDS011;4532;50.886;4.700;2023-05-16T03:43:50;11.33;;;2.40;;
8993;SDS011;4532;50.886;4.700;2023-05-16T03:46:17;11.10;;;2.40;;
8993;SDS011;4532;50.886;4.700;2023-05-16T03:48:44;10.73;;;2.50;;
8993;SDS011;4532;50.886;4.700;2023-05-16T03:51:11;11.03;;;2.43;;
8993;SDS011;4532;50.886;4.700;2023-05-16T03:53:39;9.27;;;2.03;;
8993;SDS011;4532;50.886;4.700;2023-05-16T03:56:10;7.80;;;2.20;;
8993;SDS011;4532;50.886;4.700;2023-05-16T03:58:38;9.90;;;2.30;;
8993;SDS011;4532;50.886;4.700;2023-05-16T04:01:05;9.57;;;2.37;;
8993;SDS011;4532;50.886;4.700;2023-05-16T04:03:32;6.60;;;2.10;;
8993;SDS011;4532;50.886;4.700;2023-05-16T04:05:59;8.70;;;2.13;;
8993;SDS011;4532;50.886;4.700;2023-05-16T04:08:31;12.80;;;2.70;;
8993;SDS011;4532;50.886;4.700;2023-05-16T04:10:58;10.13;;;2.30;;
8993;SDS011;4532;50.886;4.700;2023-05-16T04:13:33;9.47;;;2.53;;
8993;SDS011;4532;50.886;4.700;2023-05-16T04:16:02;9.77;;;2.17;;
8993;SDS011;4532;50.886;4.700;2023-05-16T04:18:30;9.20;;;2.47;;
8993;SDS011;4532;50.886;4.700;2023-05-16T04:20:59;9.67;;;2.63;;
8993;SDS011;4532;50.886;4.700;2023-05-16T04:23:29;13.37;;;2.17;;
8993;SDS011;4532;50.886;4.700;2023-05-16T04:25:58;9.40;;;2.97;;
8993;SDS011;4532;50.886;4.700;2023-05-16T04:28:27;11.40;;;2.80;;
8993;SDS011;4532;50.886;4.700;2023-05-16T04:30:54;11.73;;;3.23;;
8993;SDS011;4532;50.886;4.700;2023-05-16T04:33:21;11.57;;;2.93;;
8993;SDS011;4532;50.886;4.700;2023-05-16T04:35:48;12.77;;;2.43;;
8993;SDS011;4532;50.886;4.700;2023-05-16T04:38:15;11.60;;;2.17;;
8993;SDS011;4532;50.886;4.700;2023-05-16T04:40:45;12.60;;;2.33;;
8993;SDS011;4532;50.886;4.700;2023-05-16T04:43:14;9.53;;;2.20;;
8993;SDS011;4532;50.886;4.700;2023-05-16T04:45:47;8.37;;;2.30;;
8993;SDS011;4532;50.886;4.700;2023-05-16T04:48:16;13.80;;;3.10;;
8993;SDS011;4532;50.886;4.700;2023-05-16T04:50:43;7.27;;;2.17;;
8993;SDS011;4532;50.886;4.700;2023-05-16T04:53:11;11.97;;;2.40;;
8993;SDS011;4532;50.886;4.700;2023-05-16T04:55:41;13.07;;;2.70;;
8993;SDS011;4532;50.886;4.700;2023-05-16T04:58:08;8.53;;;1.80;;
8993;SDS011;4532;50.886;4.700;2023-05-16T05:00:38;8.73;;;2.07;;
8993;SDS011;4532;50.886;4.700;2023-05-16T05:03:05;10.93;;;2.03;;
8993;SDS011;4532;50.886;4.700;2023-05-16T05:05:35;8.33;;;2.50;;
8993;SDS011;4532;50.886;4.700;2023-05-16T05:08:07;15.60;;;2.40;;
8993;SDS011;4532;50.886;4.700;2023-05-16T05:10:37;8.30;;;2.30;;
8993;SDS011;4532;50.886;4.700;2023-05-16T05:13:07;10.93;;;2.33;;
8993;SDS011;4532;50.886;4.700;2023-05-16T05:15:38;7.30;;;2.00;;
8993;SDS011;4532;50.886;4.700;2023-05-16T05:18:06;9.70;;;2.47;;
8993;SDS011;4532;50.886;4.700;2023-05-16T05:20:33;11.37;;;2.30;;
8993;SDS011;4532;50.886;4.700;2023-05-16T05:23:08;10.70;;;2.70;;
8993;SDS011;4532;50.886;4.700;2023-05-16T05:25:36;8.47;;;2.07;;
8993;SDS011;4532;50.886;4.700;2023-05-16T05:28:08;10.53;;;2.70;;
8993;SDS011;4532;50.886;4.700;2023-05-16T05:30:38;9.83;;;2.37;;
8993;SDS011;4532;50.886;4.700;2023-05-16T05:33:09;9.23;;;2.33;;
8993;SDS011;4532;50.886;4.700;2023-05-16T05:35:44;12.40;;;2.13;;
8993;SDS011;4532;50.886;4.700;2023-05-16T05:38:14;12.30;;;2.73;;
8993;SDS011;4532;50.886;4.700;2023-05-16T05:40:43;11.37;;;2.53;;
8993;SDS011;4532;50.886;4.700;2023-05-16T05:43:13;10.93;;;2.13;;
8993;SDS011;4532;50.886;4.700;2023-05-16T05:45:40;12.57;;;2.60;;
8993;SDS011;4532;50.886;4.700;2023-05-16T05:48:08;12.20;;;2.23;;
8993;SDS011;4532;50.886;4.700;2023-05-16T05:50:36;9.83;;;2.23;;
8993;SDS011;4532;50.886;4.700;2023-05-16T05:53:08;12.07;;;2.63;;
8993;SDS011;4532;50.886;4.700;2023-05-16T05:55:40;6.87;;;1.93;;
8993;SDS011;4532;50.886;4.700;2023-05-16T05:58:11;8.93;;;2.37;;
8993;SDS011;4532;50.886;4.700;2023-05-16T06:00:39;9.83;;;1.80;;
8993;SDS011;4532;50.886;4.700;2023-05-16T06:03:11;10.87;;;1.80;;
8993;SDS011;4532;50.886;4.700;2023-05-16T06:05:40;13.07;;;2.30;;
8993;SDS011;4532;50.886;4.700;2023-05-16T06:08:09;12.17;;;2.37;;
8993;SDS011;4532;50.886;4.700;2023-05-16T06:10:36;9.73;;;2.60;;
8993;SDS011;4532;50.886;4.700;2023-05-16T06:13:03;12.60;;;2.40;;
8993;SDS011;4532;50.886;4.700;2023-05-16T06:15:33;8.73;;;1.93;;
8993;SDS011;4532;50.886;4.700;2023-05-16T06:18:03;9.97;;;2.30;;
8993;SDS011;4532;50.886;4.700;2023-05-16T06:20:33;10.87;;;2.83;;
8993;SDS011;4532;50.886;4.700;2023-05-16T06:23:06;11.50;;;2.40;;
8993;SDS011;4532;50.886;4.700;2023-05-16T06:25:37;9.10;;;1.90;;
8993;SDS011;4532;50.886;4.700;2023-05-16T06:28:07;12.13;;;2.33;;
8993;SDS011;4532;50.886;4.700;2023-05-16T06:30:35;9.83;;;2.03;;
8993;SDS011;4532;50.886;4.700;2023-05-16T06:33:03;11.80;;;2.40;;
8993;SDS011;4532;50.886;4.700;2023-05-16T06:35:34;7.83;;;2.53;;
8993;SDS011;4532;50.886;4.700;2023-05-16T06:38:01;9.20;;;2.10;;
8993;SDS011;4532;50.886;4.700;2023-05-16T06:40:28;8.70;;;2.20;;
8993;SDS011;4532;50.886;4.700;2023-05-16T06:42:55;9.10;;;1.90;;
8993;SDS011;4532;50.886;4.700;2023-05-16T06:45:26;8.73;;;2.13;;
8993;SDS011;4532;50.886;4.700;2023-05-16T06:47:58;10.77;;;2.27;;
8993;SDS011;4532;50.886;4.700;2023-05-16T06:50:28;8.17;;;1.80;;
8993;SDS011;4532;50.886;4.700;2023-05-16T06:52:55;9.67;;;1.73;;
8993;SDS011;4532;50.886;4.700;2023-05-16T06:55:22;12.83;;;2.20;;
8993;SDS011;4532;50.886;4.700;2023-05-16T06:57:50;8.43;;;1.90;;
8993;SDS011;4532;50.886;4.700;2023-05-16T07:00:17;7.17;;;1.70;;
8993;SDS011;4532;50.886;4.700;2023-05-16T07:02:45;9.67;;;1.80;;
8993;SDS011;4532;50.886;4.700;2023-05-16T07:05:12;9.23;;;1.90;;
8993;SDS011;4532;50.886;4.700;2023-05-16T07:07:39;8.97;;;1.80;;
8993;SDS011;4532;50.886;4.700;2023-05-16T07:10:09;11.37;;;2.10;;
8993;SDS011;4532;50.886;4.700;2023-05-16T07:12:36;5.70;;;1.40;;
8993;SDS011;4532;50.886;4.700;2023-05-16T07:15:10;8.93;;;1.97;;
8993;SDS011;4532;50.886;4.700;2023-05-16T07:17:39;12.00;;;1.93;;
8993;SDS011;4532;50.886;4.700;2023-05-16T07:20:09;12.43;;;2.20;;
8993;SDS011;4532;50.886;4.700;2023-05-16T07:22:44;9.90;;;2.37;;
8993;SDS011;4532;50.886;4.700;2023-05-16T07:25:11;12.63;;;1.77;;
8993;SDS011;4532;50.886;4.700;2023-05-16T07:27:41;10.87;;;1.73;;
8993;SDS011;4532;50.886;4.700;2023-05-16T07:30:13;8.80;;;1.70;;
8993;SDS011;4532;50.886;4.700;2023-05-16T07:32:45;7.93;;;1.70;;
8993;SDS011;4532;50.886;4.700;2023-05-16T07:35:13;12.23;;;1.90;;
8993;SDS011;4532;50.886;4.700;2023-05-16T07:37:45;5.53;;;1.50;;
8993;SDS011;4532;50.886;4.700;2023-05-16T07:40:14;9.33;;;1.47;;
8993;SDS011;4532;50.886;4.700;2023-05-16T07:42:43;8.70;;;1.63;;
8993;SDS011;4532;50.886;4.700;2023-05-16T07:45:13;4.23;;;1.13;;
8993;SDS011;4532;50.886;4.700;2023-05-16T07:47:45;5.20;;;1.60;;
8993;SDS011;4532;50.886;4.700;2023-05-16T07:50:17;7.43;;;1.57;;
8993;SDS011;4532;50.886;4.700;2023-05-16T07:52:47;5.30;;;1.30;;
8993;SDS011;4532;50.886;4.700;2023-05-16T07:55:17;6.77;;;1.10;;
8993;SDS011;4532;50.886;4.700;2023-05-16T07:57:45;5.97;;;1.43;;
8993;SDS011;4532;50.886;4.700;2023-05-16T08:00:12;4.93;;;0.97;;
8993;SDS011;4532;50.886;4.700;2023-05-16T08:02:43;7.77;;;1.50;;
8993;SDS011;4532;50.886;4.700;2023-05-16T08:05:14;7.37;;;1.23;;
8993;SDS011;4532;50.886;4.700;2023-05-16T08:07:44;6.00;;;1.47;;
8993;SDS011;4532;50.886;4.700;2023-05-16T08:10:14;5.63;;;1.33;;
8993;SDS011;4532;50.886;4.700;2023-05-16T08:12:44;5.30;;;1.50;;
8993;SDS011;4532;50.886;4.700;2023-05-16T08:15:11;8.20;;;1.33;;
8993;SDS011;4532;50.886;4.700;2023-05-16T08:17:39;6.13;;;1.47;;
8993;SDS011;4532;50.886;4.700;2023-05-16T08:20:06;11.33;;;1.87;;
8993;SDS011;4532;50.886;4.700;2023-05-16T08:22:36;8.50;;;2.13;;
8993;SDS011;4532;50.886;4.700;2023-05-16T08:25:03;8.13;;;1.90;;
8993;SDS011;4532;50.886;4.700;2023-05-16T08:27:34;5.77;;;1.57;;
8993;SDS011;4532;50.886;4.700;2023-05-16T08:30:07;7.60;;;1.23;;
8993;SDS011;4532;50.886;4.700;2023-05-16T08:32:40;6.53;;;1.13;;
8993;SDS011;4532;50.886;4.700;2023-05-16T08:35:10;5.17;;;1.27;;
8993;SDS011;4532;50.886;4.700;2023-05-16T08:37:40;7.67;;;1.40;;
8993;SDS011;4532;50.886;4.700;2023-05-16T08:40:11;4.77;;;1.10;;
8993;SDS011;4532;50.886;4.700;2023-05-16T08:42:43;4.47;;;1.07;;
8993;SDS011;4532;50.886;4.700;2023-05-16T08:45:11;4.07;;;1.03;;
8993;SDS011;4532;50.886;4.700;2023-05-16T08:47:46;5.77;;;1.30;;
8993;SDS011;4532;50.886;4.700;2023-05-16T08:50:17;6.17;;;1.43;;
8993;SDS011;4532;50.886;4.700;2023-05-16T08:52:50;4.77;;;1.30;;
8993;SDS011;4532;50.886;4.700;2023-05-16T08:55:21;5.27;;;1.20;;
8993;SDS011;4532;50.886;4.700;2023-05-16T08:57:50;11.17;;;1.80;;
8993;SDS011;4532;50.886;4.700;2023-05-16T09:00:20;8.00;;;1.37;;
8993;SDS011;4532;50.886;4.700;2023-05-16T09:02:51;6.90;;;1.30;;
8993;SDS011;4532;50.886;4.700;2023-05-16T09:05:19;7.23;;;1.37;;
8993;SDS011;4532;50.886;4.700;2023-05-16T09:07:50;5.00;;;1.73;;
8993;SDS011;4532;50.886;4.700;2023-05-16T09:10:22;6.83;;;1.50;;
8993;SDS011;4532;50.886;4.700;2023-05-16T09:12:54;5.83;;;1.50;;
8993;SDS011;4532;50.886;4.700;2023-05-16T09:15:21;5.47;;;1.30;;
8993;SDS011;4532;50.886;4.700;2023-05-16T09:17:58;6.20;;;1.63;;
8993;SDS011;4532;50.886;4.700;2023-05-16T09:20:27;9.37;;;1.90;;
8993;SDS011;4532;50.886;4.700;2023-05-16T09:22:55;6.73;;;1.53;;
8993;SDS011;4532;50.886;4.700;2023-05-16T09:25:26;5.67;;;1.30;;
8993;SDS011;4532;50.886;4.700;2023-05-16T09:27:59;7.17;;;1.63;;
8993;SDS011;4532;50.886;4.700;2023-05-16T09:30:29;6.10;;;1.50;;
8993;SDS011;4532;50.886;4.700;2023-05-16T09:32:57;5.67;;;1.43;;
8993;SDS011;4532;50.886;4.700;2023-05-16T09:35:28;9.47;;;1.70;;
8993;SDS011;4532;50.886;4.700;2023-05-16T09:38:00;3.80;;;1.20;;
8993;SDS011;4532;50.886;4.700;2023-05-16T09:40:30;5.90;;;1.40;;
8993;SDS011;4532;50.886;4.700;2023-05-16T09:43:06;5.83;;;1.30;;
8993;SDS011;4532;50.886;4.700;2023-05-16T09:45:34;6.90;;;2.30;;
8993;SDS011;4532;50.886;4.700;2023-05-16T09:48:07;4.57;;;1.87;;
8993;SDS011;4532;50.886;4.700;2023-05-16T09:50:38;7.37;;;1.73;;
8993;SDS011;4532;50.886;4.700;2023-05-16T09:53:13;7.53;;;1.73;;
8993;SDS011;4532;50.886;4.700;2023-05-16T09:55:40;5.73;;;1.33;;
8993;SDS011;4532;50.886;4.700;2023-05-16T09:58:07;8.67;;;1.77;;
8993;SDS011;4532;50.886;4.700;2023-05-16T10:00:35;7.43;;;1.40;;
8993;SDS011;4532;50.886;4.700;2023-05-16T10:03:06;4.70;;;1.60;;
8993;SDS011;4532;50.886;4.700;2023-05-16T10:05:34;3.80;;;1.30;;
8993;SDS011;4532;50.886;4.700;2023-05-16T10:08:02;6.23;;;1.40;;
8993;SDS011;4532;50.886;4.700;2023-05-16T10:10:33;5.63;;;1.30;;
8993;SDS011;4532;50.886;4.700;2023-05-16T10:13:04;5.27;;;1.20;;
8993;SDS011;4532;50.886;4.700;2023-05-16T10:15:36;7.23;;;1.80;;
8993;SDS011;4532;50.886;4.700;2023-05-16T10:18:06;8.43;;;1.60;;
8993;SDS011;4532;50.886;4.700;2023-05-16T10:20:41;4.20;;;1.00;;
8993;SDS011;4532;50.886;4.700;2023-05-16T10:23:18;8.27;;;1.57;;
8993;SDS011;4532;50.886;4.700;2023-05-16T10:25:48;6.00;;;1.87;;
8993;SDS011;4532;50.886;4.700;2023-05-16T10:28:18;5.07;;;1.33;;
8993;SDS011;4532;50.886;4.700;2023-05-16T10:30:46;4.10;;;1.00;;
8993;SDS011;4532;50.886;4.700;2023-05-16T10:33:17;7.10;;;1.37;;
8993;SDS011;4532;50.886;4.700;2023-05-16T10:35:48;6.10;;;1.10;;
8993;SDS011;4532;50.886;4.700;2023-05-16T10:38:19;3.60;;;1.00;;
8993;SDS011;4532;50.886;4.700;2023-05-16T10:40:49;3.97;;;1.03;;
8993;SDS011;4532;50.886;4.700;2023-05-16T10:43:28;3.13;;;0.97;;
8993;SDS011;4532;50.886;4.700;2023-05-16T10:45:58;3.63;;;1.33;;
8993;SDS011;4532;50.886;4.700;2023-05-16T10:48:29;6.00;;;1.10;;
8993;SDS011;4532;50.886;4.700;2023-05-16T10:53:52;4.63;;;1.07;;
8993;SDS011;4532;50.886;4.700;2023-05-16T10:56:23;3.57;;;1.07;;
8993;SDS011;4532;50.886;4.700;2023-05-16T10:58:54;4.40;;;0.97;;
8993;SDS011;4532;50.886;4.700;2023-05-16T11:01:26;5.17;;;1.10;;
8993;SDS011;4532;50.886;4.700;2023-05-16T11:04:04;4.37;;;1.00;;
8993;SDS011;4532;50.886;4.700;2023-05-16T11:14:25;4.87;;;1.27;;
8993;SDS011;4532;50.886;4.700;2023-05-16T11:16:59;3.97;;;0.93;;
8993;SDS011;4532;50.886;4.700;2023-05-16T11:22:22;4.50;;;1.10;;
8993;SDS011;4532;50.886;4.700;2023-05-16T11:27:36;4.20;;;1.13;;
8993;SDS011;4532;50.886;4.700;2023-05-16T11:30:12;6.22;;;1.20;;
8993;SDS011;4532;50.886;4.700;2023-05-16T11:32:44;4.10;;;0.90;;
8993;SDS011;4532;50.886;4.700;2023-05-16T11:35:16;5.23;;;0.90;;
8993;SDS011;4532;50.886;4.700;2023-05-16T11:37:46;2.17;;;1.10;;
8993;SDS011;4532;50.886;4.700;2023-05-16T11:40:18;6.67;;;1.40;;
8993;SDS011;4532;50.886;4.700;2023-05-16T11:42:49;3.67;;;1.30;;
8993;SDS011;4532;50.886;4.700;2023-05-16T11:45:20;5.03;;;1.23;;
8993;SDS011;4532;50.886;4.700;2023-05-16T11:47:50;5.03;;;1.33;;
8993;SDS011;4532;50.886;4.700;2023-05-16T11:50:19;5.30;;;1.17;;
8993;SDS011;4532;50.886;4.700;2023-05-16T11:52:52;4.23;;;1.00;;
8993;SDS011;4532;50.886;4.700;2023-05-16T11:55:24;3.00;;;0.93;;
8993;SDS011;4532;50.886;4.700;2023-05-16T11:58:10;5.13;;;1.43;;
8993;SDS011;4532;50.886;4.700;2023-05-16T12:00:43;4.73;;;1.23;;
8993;SDS011;4532;50.886;4.700;2023-05-16T12:03:13;4.63;;;1.13;;
8993;SDS011;4532;50.886;4.700;2023-05-16T12:05:52;3.22;;;1.20;;
8993;SDS011;4532;50.886;4.700;2023-05-16T12:08:23;5.13;;;1.50;;
8993;SDS011;4532;50.886;4.700;2023-05-16T12:10:51;2.33;;;1.17;;
8993;SDS011;4532;50.886;4.700;2023-05-16T12:13:21;3.45;;;1.05;;
8993;SDS011;4532;50.886;4.700;2023-05-16T12:15:54;5.10;;;1.20;;
8993;SDS011;4532;50.886;4.700;2023-05-16T12:18:22;3.90;;;1.30;;
8993;SDS011;4532;50.886;4.700;2023-05-16T12:20:50;3.33;;;1.07;;
8993;SDS011;4532;50.886;4.700;2023-05-16T12:23:25;4.30;;;1.10;;
8993;SDS011;4532;50.886;4.700;2023-05-16T12:25:53;3.43;;;1.10;;
8993;SDS011;4532;50.886;4.700;2023-05-16T12:28:25;4.57;;;1.30;;
8993;SDS011;4532;50.886;4.700;2023-05-16T12:31:01;4.47;;;1.17;;
8993;SDS011;4532;50.886;4.700;2023-05-16T12:33:30;6.63;;;1.20;;
8993;SDS011;4532;50.886;4.700;2023-05-16T12:36:03;3.10;;;1.30;;
8993;SDS011;4532;50.886;4.700;2023-05-16T12:38:30;3.13;;;1.00;;
8993;SDS011;4532;50.886;4.700;2023-05-16T12:40:58;3.45;;;1.20;;
8993;SDS011;4532;50.886;4.700;2023-05-16T12:43:28;4.40;;;1.20;;
8993;SDS011;4532;50.886;4.700;2023-05-16T12:46:02;4.43;;;1.10;;
8993;SDS011;4532;50.886;4.700;2023-05-16T12:48:37;5.05;;;1.50;;
8993;SDS011;4532;50.886;4.700;2023-05-16T12:51:11;4.40;;;1.20;;
8993;SDS011;4532;50.886;4.700;2023-05-16T12:53:46;2.57;;;1.00;;
8993;SDS011;4532;50.886;4.700;2023-05-16T12:56:34;4.77;;;1.37;;
8993;SDS011;4532;50.886;4.700;2023-05-16T12:59:04;3.77;;;1.00;;
8993;SDS011;4532;50.886;4.700;2023-05-16T13:01:34;3.13;;;1.60;;
8993;SDS011;4532;50.886;4.700;2023-05-16T13:04:02;2.70;;;1.10;;
8993;SDS011;4532;50.886;4.700;2023-05-16T13:06:33;4.53;;;1.50;;
8993;SDS011;4532;50.886;4.700;2023-05-16T13:09:20;3.33;;;1.17;;
8993;SDS011;4532;50.886;4.700;2023-05-16T13:11:50;2.93;;;1.20;;
8993;SDS011;4532;50.886;4.700;2023-05-16T13:14:18;4.47;;;1.20;;
8993;SDS011;4532;50.886;4.700;2023-05-16T13:16:45;2.87;;;1.07;;
8993;SDS011;4532;50.886;4.700;2023-05-16T13:19:18;5.60;;;1.43;;
8993;SDS011;4532;50.886;4.700;2023-05-16T13:21:47;2.87;;;1.10;;
8993;SDS011;4532;50.886;4.700;2023-05-16T13:24:17;3.53;;;1.23;;
8993;SDS011;4532;50.886;4.700;2023-05-16T13:26:44;5.73;;;1.40;;
8993;SDS011;4532;50.886;4.700;2023-05-16T13:29:11;2.97;;;1.15;;
8993;SDS011;4532;50.886;4.700;2023-05-16T13:31:40;3.23;;;1.00;;
8993;SDS011;4532;50.886;4.700;2023-05-16T13:34:10;6.13;;;1.63;;
8993;SDS011;4532;50.886;4.700;2023-05-16T13:36:40;3.55;;;1.00;;
8993;SDS011;4532;50.886;4.700;2023-05-16T13:39:22;4.70;;;1.40;;
8993;SDS011;4532;50.886;4.700;2023-05-16T13:41:54;5.90;;;1.50;;
8993;SDS011;4532;50.886;4.700;2023-05-16T13:44:23;2.88;;;0.93;;
8993;SDS011;4532;50.886;4.700;2023-05-16T13:46:55;5.00;;;1.15;;
8993;SDS011;4532;50.886;4.700;2023-05-16T13:49:23;2.43;;;0.90;;
8993;SDS011;4532;50.886;4.700;2023-05-16T13:51:53;2.27;;;0.80;;
8993;SDS011;4532;50.886;4.700;2023-05-16T13:54:21;5.20;;;1.20;;
8993;SDS011;4532;50.886;4.700;2023-05-16T13:56:48;2.57;;;0.80;;
8993;SDS011;4532;50.886;4.700;2023-05-16T13:59:16;4.03;;;1.00;;
8993;SDS011;4532;50.886;4.700;2023-05-16T14:02:03;2.53;;;1.02;;
8993;SDS011;4532;50.886;4.700;2023-05-16T14:04:33;3.65;;;1.05;;
8993;SDS011;4532;50.886;4.700;2023-05-16T14:07:02;2.28;;;1.00;;
8993;SDS011;4532;50.886;4.700;2023-05-16T14:09:31;3.63;;;1.20;;
8993;SDS011;4532;50.886;4.700;2023-05-16T14:12:04;3.17;;;1.03;;
8993;SDS011;4532;50.886;4.700;2023-05-16T14:14:37;6.40;;;1.48;;
8993;SDS011;4532;50.886;4.700;2023-05-16T14:17:04;3.15;;;1.00;;
8993;SDS011;4532;50.886;4.700;2023-05-16T14:19:36;4.95;;;1.33;;
8993;SDS011;4532;50.886;4.700;2023-05-16T14:22:08;3.33;;;1.27;;
8993;SDS011;4532;50.886;4.700;2023-05-16T14:24:40;3.38;;;1.15;;
8993;SDS011;4532;50.886;4.700;2023-05-16T14:27:09;6.53;;;1.38;;
8993;SDS011;4532;50.886;4.700;2023-05-16T14:29:40;5.40;;;1.40;;
8993;SDS011;4532;50.886;4.700;2023-05-16T14:32:09;6.70;;;1.50;;
8993;SDS011;4532;50.886;4.700;2023-05-16T14:34:37;4.88;;;1.40;;
8993;SDS011;4532;50.886;4.700;2023-05-16T14:37:04;5.45;;;0.90;;
8993;SDS011;4532;50.886;4.700;2023-05-16T14:39:37;8.43;;;1.08;;
8993;SDS011;4532;50.886;4.700;2023-05-16T14:42:10;4.07;;;1.15;;
8993;SDS011;4532;50.886;4.700;2023-05-16T14:44:40;3.95;;;1.02;;
8993;SDS011;4532;50.886;4.700;2023-05-16T14:47:07;2.95;;;1.00;;
8993;SDS011;4532;50.886;4.700;2023-05-16T14:49:36;3.53;;;1.20;;
8993;SDS011;4532;50.886;4.700;2023-05-16T14:52:04;4.43;;;1.15;;
8993;SDS011;4532;50.886;4.700;2023-05-16T14:54:31;6.20;;;1.17;;
8993;SDS011;4532;50.886;4.700;2023-05-16T14:56:59;4.35;;;1.00;;
8993;SDS011;4532;50.886;4.700;2023-05-16T14:59:27;4.85;;;1.40;;
8993;SDS011;4532;50.886;4.700;2023-05-16T15:01:57;2.35;;;1.00;;
8993;SDS011;4532;50.886;4.700;2023-05-16T15:04:27;3.55;;;1.10;;
8993;SDS011;4532;50.886;4.700;2023-05-16T15:06:57;2.60;;;1.00;;
8993;SDS011;4532;50.886;4.700;2023-05-16T15:09:24;3.28;;;1.10;;
8993;SDS011;4532;50.886;4.700;2023-05-16T15:11:56;3.38;;;1.20;;
8993;SDS011;4532;50.886;4.700;2023-05-16T15:14:26;3.67;;;0.90;;
8993;SDS011;4532;50.886;4.700;2023-05-16T15:16:56;3.28;;;1.00;;
8993;SDS011;4532;50.886;4.700;2023-05-16T15:19:28;3.65;;;0.90;;
8993;SDS011;4532;50.886;4.700;2023-05-16T15:21:58;5.07;;;0.80;;
8993;SDS011;4532;50.886;4.700;2023-05-16T15:24:30;4.32;;;1.20;;
8993;SDS011;4532;50.886;4.700;2023-05-16T15:27:00;2.30;;;0.80;;
8993;SDS011;4532;50.886;4.700;2023-05-16T15:29:30;5.53;;;1.10;;
8993;SDS011;4532;50.886;4.700;2023-05-16T15:32:02;3.33;;;1.10;;
8993;SDS011;4532;50.886;4.700;2023-05-16T15:34:33;2.40;;;0.85;;
8993;SDS011;4532;50.886;4.700;2023-05-16T15:37:03;3.78;;;1.00;;
8993;SDS011;4532;50.886;4.700;2023-05-16T15:39:36;5.28;;;1.20;;
8993;SDS011;4532;50.886;4.700;2023-05-16T15:42:06;2.28;;;0.88;;
8993;SDS011;4532;50.886;4.700;2023-05-16T15:44:37;4.18;;;1.10;;
8993;SDS011;4532;50.886;4.700;2023-05-16T15:47:09;4.90;;;0.98;;
8993;SDS011;4532;50.886;4.700;2023-05-16T15:49:40;4.07;;;1.10;;
8993;SDS011;4532;50.886;4.700;2023-05-16T15:52:07;2.70;;;1.10;;
8993;SDS011;4532;50.886;4.700;2023-05-16T15:54:37;4.45;;;1.00;;
8993;SDS011;4532;50.886;4.700;2023-05-16T15:57:09;4.18;;;0.93;;
8993;SDS011;4532;50.886;4.700;2023-05-16T15:59:36;6.53;;;0.90;;
8993;SDS011;4532;50.886;4.700;2023-05-16T16:02:05;2.83;;;0.90;;